sensor_id;sensor_type;location;lat;lon;timestamp;temperature;humidity
31783;DHT22;18351;47.560;9.708;2023-02-18T00:00:55;9.70;99.90
31783;DHT22;18351;47.560;9.708;2023-02-18T00:03:23;9.70;99.90
31783;DHT22;18351;47.560;9.708;2023-02-18T00:05:49;9.70;99.90
31783;DHT22;18351;47.560;9.708;2023-02-18T00:08:15;9.80;99.90
31783;DHT22;18351;47.560;9.708;2023-02-18T00:10:41;9.70;99.90
31783;DHT22;18351;47.560;9.708;2023-02-18T00:13:06;9.70;99.90
31783;DHT22;18351;47.560;9.708;2023-02-18T00:15:34;9.70;99.90
31783;DHT22;18351;47.560;9.708;2023-02-18T00:18:00;9.70;99.90
31783;DHT22;18351;47.560;9.708;2023-02-18T00:20:25;9.70;99.90
31783;DHT22;18351;47.560;9.708;2023-02-18T00:22:51;9.80;99.90
31783;DHT22;18351;47.560;9.708;2023-02-18T00:25:16;9.70;99.90
31783;DHT22;18351;47.560;9.708;2023-02-18T00:27:42;9.70;99.90
31783;DHT22;18351;47.560;9.708;2023-02-18T00:30:08;9.70;99.90
31783;DHT22;18351;47.560;9.708;2023-02-18T00:32:34;9.70;99.90
31783;DHT22;18351;47.560;9.708;2023-02-18T00:35:00;9.70;99.90
31783;DHT22;18351;47.560;9.708;2023-02-18T00:37:25;9.70;99.90
31783;DHT22;18351;47.560;9.708;2023-02-18T00:39:51;9.70;99.90
31783;DHT22;18351;47.560;9.708;2023-02-18T00:42:16;9.60;99.90
31783;DHT22;18351;47.560;9.708;2023-02-18T00:44:42;9.60;99.90
31783;DHT22;18351;47.560;9.708;2023-02-18T00:47:08;9.60;99.90
31783;DHT22;18351;47.560;9.708;2023-02-18T00:49:33;9.70;99.90
31783;DHT22;18351;47.560;9.708;2023-02-18T00:51:59;9.70;99.90
31783;DHT22;18351;47.560;9.708;2023-02-18T00:54:24;9.70;99.90
31783;DHT22;18351;47.560;9.708;2023-02-18T00:56:50;9.70;99.90
31783;DHT22;18351;47.560;9.708;2023-02-18T00:59:16;9.70;99.90
31783;DHT22;18351;47.560;9.708;2023-02-18T01:01:41;9.70;99.90
31783;DHT22;18351;47.560;9.708;2023-02-18T01:04:07;9.70;99.90
31783;DHT22;18351;47.560;9.708;2023-02-18T01:06:32;9.70;99.90
31783;DHT22;18351;47.560;9.708;2023-02-18T01:08:58;9.60;99.90
31783;DHT22;18351;47.560;9.708;2023-02-18T01:11:24;9.60;99.90
31783;DHT22;18351;47.560;9.708;2023-02-18T01:13:50;9.60;99.90
31783;DHT22;18351;47.560;9.708;2023-02-18T01:16:16;9.60;99.90
31783;DHT22;18351;47.560;9.708;2023-02-18T01:18:42;9.70;99.90
31783;DHT22;18351;47.560;9.708;2023-02-18T01:21:08;9.60;99.90
31783;DHT22;18351;47.560;9.708;2023-02-18T01:23:39;9.60;99.90
31783;DHT22;18351;47.560;9.708;2023-02-18T01:26:06;9.60;99.90
31783;DHT22;18351;47.560;9.708;2023-02-18T01:28:32;9.60;99.90
31783;DHT22;18351;47.560;9.708;2023-02-18T01:30:57;9.50;99.90
31783;DHT22;18351;47.560;9.708;2023-02-18T01:33:28;9.50;99.90
31783;DHT22;18351;47.560;9.708;2023-02-18T01:35:53;9.50;99.90
31783;DHT22;18351;47.560;9.708;2023-02-18T01:38:19;9.50;99.90
31783;DHT22;18351;47.560;9.708;2023-02-18T01:40:50;9.50;99.90
31783;DHT22;18351;47.560;9.708;2023-02-18T01:43:18;9.60;99.90
31783;DHT22;18351;47.560;9.708;2023-02-18T01:51:29;9.40;99.90
31783;DHT22;18351;47.560;9.708;2023-02-18T01:57:08;9.30;99.90
31783;DHT22;18351;47.560;9.708;2023-02-18T01:59:40;9.30;99.90
31783;DHT22;18351;47.560;9.708;2023-02-18T02:02:11;9.20;99.90
31783;DHT22;18351;47.560;9.708;2023-02-18T02:04:37;9.20;99.90
31783;DHT22;18351;47.560;9.708;2023-02-18T02:07:03;9.20;99.90
31783;DHT22;18351;47.560;9.708;2023-02-18T02:09:30;9.20;99.90
31783;DHT22;18351;47.560;9.708;2023-02-18T02:12:31;9.10;99.90
31783;DHT22;18351;47.560;9.708;2023-02-18T02:20:42;8.90;99.90
31783;DHT22;18351;47.560;9.708;2023-02-18T02:36:45;8.70;99.90
31783;DHT22;18351;47.560;9.708;2023-02-18T02:39:26;8.70;99.90
31783;DHT22;18351;47.560;9.708;2023-02-18T02:52:58;8.80;99.90
31783;DHT22;18351;47.560;9.708;2023-02-18T02:55:25;8.80;99.90
31783;DHT22;18351;47.560;9.708;2023-02-18T02:57:53;8.80;99.90
31783;DHT22;18351;47.560;9.708;2023-02-18T03:00:44;8.80;99.90
31783;DHT22;18351;47.560;9.708;2023-02-18T03:06:54;8.90;99.90
31783;DHT22;18351;47.560;9.708;2023-02-18T03:12:20;8.90;99.90
31783;DHT22;18351;47.560;9.708;2023-02-18T03:14:57;8.90;99.90
31783;DHT22;18351;47.560;9.708;2023-02-18T03:17:30;8.90;99.90
31783;DHT22;18351;47.560;9.708;2023-02-18T03:20:05;8.90;99.90
31783;DHT22;18351;47.560;9.708;2023-02-18T03:22:38;8.90;99.90
31783;DHT22;18351;47.560;9.708;2023-02-18T03:25:06;8.90;99.90
31783;DHT22;18351;47.560;9.708;2023-02-18T03:27:38;8.90;99.90
31783;DHT22;18351;47.560;9.708;2023-02-18T03:30:28;8.80;99.90
31783;DHT22;18351;47.560;9.708;2023-02-18T03:32:58;8.80;99.90
31783;DHT22;18351;47.560;9.708;2023-02-18T03:35:25;8.80;99.90
31783;DHT22;18351;47.560;9.708;2023-02-18T03:38:11;8.80;99.90
31783;DHT22;18351;47.560;9.708;2023-02-18T03:40:38;8.80;99.90
31783;DHT22;18351;47.560;9.708;2023-02-18T03:43:04;8.80;99.90
31783;DHT22;18351;47.560;9.708;2023-02-18T03:45:30;8.90;99.90
31783;DHT22;18351;47.560;9.708;2023-02-18T03:47:56;8.80;99.90
31783;DHT22;18351;47.560;9.708;2023-02-18T03:50:21;8.90;99.90
31783;DHT22;18351;47.560;9.708;2023-02-18T03:52:47;8.80;99.90
31783;DHT22;18351;47.560;9.708;2023-02-18T03:55:13;8.80;99.90
31783;DHT22;18351;47.560;9.708;2023-02-18T03:57:38;8.80;99.90
31783;DHT22;18351;47.560;9.708;2023-02-18T04:00:05;8.70;99.90
31783;DHT22;18351;47.560;9.708;2023-02-18T04:02:32;8.70;99.90
31783;DHT22;18351;47.560;9.708;2023-02-18T04:04:59;8.60;99.90
31783;DHT22;18351;47.560;9.708;2023-02-18T04:07:25;8.70;99.90
31783;DHT22;18351;47.560;9.708;2023-02-18T04:09:50;8.70;99.90
31783;DHT22;18351;47.560;9.708;2023-02-18T04:12:16;8.80;99.90
31783;DHT22;18351;47.560;9.708;2023-02-18T04:14:41;8.80;99.90
31783;DHT22;18351;47.560;9.708;2023-02-18T04:17:07;8.80;99.90
31783;DHT22;18351;47.560;9.708;2023-02-18T04:19:32;8.80;99.90
31783;DHT22;18351;47.560;9.708;2023-02-18T04:21:58;8.80;99.90
31783;DHT22;18351;47.560;9.708;2023-02-18T04:24:24;8.80;99.90
31783;DHT22;18351;47.560;9.708;2023-02-18T04:26:49;8.80;99.90
31783;DHT22;18351;47.560;9.708;2023-02-18T04:29:15;8.80;99.90
31783;DHT22;18351;47.560;9.708;2023-02-18T04:31:40;8.80;99.90
31783;DHT22;18351;47.560;9.708;2023-02-18T04:34:06;8.80;99.90
31783;DHT22;18351;47.560;9.708;2023-02-18T04:36:32;8.80;99.90
31783;DHT22;18351;47.560;9.708;2023-02-18T04:38:58;8.90;99.90
31783;DHT22;18351;47.560;9.708;2023-02-18T04:41:24;8.90;99.90
31783;DHT22;18351;47.560;9.708;2023-02-18T04:43:49;8.90;99.90
31783;DHT22;18351;47.560;9.708;2023-02-18T04:46:15;8.80;99.90
31783;DHT22;18351;47.560;9.708;2023-02-18T04:48:40;8.90;99.90
31783;DHT22;18351;47.560;9.708;2023-02-18T04:51:11;8.90;99.90
31783;DHT22;18351;47.560;9.708;2023-02-18T04:53:36;8.90;99.90
31783;DHT22;18351;47.560;9.708;2023-02-18T04:56:02;8.90;99.90
31783;DHT22;18351;47.560;9.708;2023-02-18T04:58:28;8.90;99.90
31783;DHT22;18351;47.560;9.708;2023-02-18T05:00:58;8.80;99.90
31783;DHT22;18351;47.560;9.708;2023-02-18T05:03:24;8.80;99.90
31783;DHT22;18351;47.560;9.708;2023-02-18T05:05:50;8.80;99.90
31783;DHT22;18351;47.560;9.708;2023-02-18T05:08:15;8.90;99.90
31783;DHT22;18351;47.560;9.708;2023-02-18T05:10:41;8.90;99.90
31783;DHT22;18351;47.560;9.708;2023-02-18T05:13:06;8.80;99.90
31783;DHT22;18351;47.560;9.708;2023-02-18T05:15:32;8.90;99.90
31783;DHT22;18351;47.560;9.708;2023-02-18T05:17:57;8.90;99.90
31783;DHT22;18351;47.560;9.708;2023-02-18T05:20:23;8.90;99.90
31783;DHT22;18351;47.560;9.708;2023-02-18T05:22:49;8.90;99.90
31783;DHT22;18351;47.560;9.708;2023-02-18T05:25:14;8.90;99.90
31783;DHT22;18351;47.560;9.708;2023-02-18T05:27:40;8.90;99.90
31783;DHT22;18351;47.560;9.708;2023-02-18T05:30:06;8.80;99.90
31783;DHT22;18351;47.560;9.708;2023-02-18T05:32:31;8.90;99.90
31783;DHT22;18351;47.560;9.708;2023-02-18T05:34:57;8.90;99.90
31783;DHT22;18351;47.560;9.708;2023-02-18T05:37:22;8.90;99.90
31783;DHT22;18351;47.560;9.708;2023-02-18T05:39:48;8.90;99.90
31783;DHT22;18351;47.560;9.708;2023-02-18T05:42:13;8.80;99.90
31783;DHT22;18351;47.560;9.708;2023-02-18T05:44:39;8.80;99.90
31783;DHT22;18351;47.560;9.708;2023-02-18T05:47:08;8.80;99.90
31783;DHT22;18351;47.560;9.708;2023-02-18T05:49:34;8.80;99.90
31783;DHT22;18351;47.560;9.708;2023-02-18T05:52:01;8.80;99.90
31783;DHT22;18351;47.560;9.708;2023-02-18T05:54:26;8.80;99.90
31783;DHT22;18351;47.560;9.708;2023-02-18T05:56:53;8.80;99.90
31783;DHT22;18351;47.560;9.708;2023-02-18T05:59:19;8.70;99.90
31783;DHT22;18351;47.560;9.708;2023-02-18T06:01:46;8.70;99.90
31783;DHT22;18351;47.560;9.708;2023-02-18T06:04:12;8.70;99.90
31783;DHT22;18351;47.560;9.708;2023-02-18T06:06:38;8.70;99.90
31783;DHT22;18351;47.560;9.708;2023-02-18T06:09:05;8.60;99.90
31783;DHT22;18351;47.560;9.708;2023-02-18T06:11:30;8.60;99.90
31783;DHT22;18351;47.560;9.708;2023-02-18T06:13:56;8.60;99.90
31783;DHT22;18351;47.560;9.708;2023-02-18T06:16:22;8.40;99.90
31783;DHT22;18351;47.560;9.708;2023-02-18T06:18:47;8.40;99.90
31783;DHT22;18351;47.560;9.708;2023-02-18T06:21:13;8.40;99.90
31783;DHT22;18351;47.560;9.708;2023-02-18T06:23:38;8.40;99.90
31783;DHT22;18351;47.560;9.708;2023-02-18T06:26:04;8.40;99.90
31783;DHT22;18351;47.560;9.708;2023-02-18T06:28:29;8.50;99.90
31783;DHT22;18351;47.560;9.708;2023-02-18T06:30:55;8.40;99.90
31783;DHT22;18351;47.560;9.708;2023-02-18T06:33:21;8.50;99.90
31783;DHT22;18351;47.560;9.708;2023-02-18T06:36:04;8.50;99.90
31783;DHT22;18351;47.560;9.708;2023-02-18T06:38:36;8.50;99.90
31783;DHT22;18351;47.560;9.708;2023-02-18T06:41:02;8.50;99.90
31783;DHT22;18351;47.560;9.708;2023-02-18T06:43:28;8.50;99.90
31783;DHT22;18351;47.560;9.708;2023-02-18T06:45:54;8.50;99.90
31783;DHT22;18351;47.560;9.708;2023-02-18T06:48:20;8.60;99.90
31783;DHT22;18351;47.560;9.708;2023-02-18T06:50:45;8.60;99.90
31783;DHT22;18351;47.560;9.708;2023-02-18T06:53:11;8.70;99.90
31783;DHT22;18351;47.560;9.708;2023-02-18T06:55:37;8.70;99.90
31783;DHT22;18351;47.560;9.708;2023-02-18T06:58:03;8.70;99.90
31783;DHT22;18351;47.560;9.708;2023-02-18T07:00:29;8.70;99.90
31783;DHT22;18351;47.560;9.708;2023-02-18T07:02:54;8.70;99.90
31783;DHT22;18351;47.560;9.708;2023-02-18T07:05:20;8.80;99.90
31783;DHT22;18351;47.560;9.708;2023-02-18T07:07:45;8.90;99.90
31783;DHT22;18351;47.560;9.708;2023-02-18T07:10:11;9.00;99.90
31783;DHT22;18351;47.560;9.708;2023-02-18T07:12:37;9.10;99.90
31783;DHT22;18351;47.560;9.708;2023-02-18T07:15:03;9.10;99.90
31783;DHT22;18351;47.560;9.708;2023-02-18T07:17:29;9.10;99.90
31783;DHT22;18351;47.560;9.708;2023-02-18T07:19:54;9.10;99.90
31783;DHT22;18351;47.560;9.708;2023-02-18T07:22:20;9.20;99.90
31783;DHT22;18351;47.560;9.708;2023-02-18T07:24:53;9.20;99.90
31783;DHT22;18351;47.560;9.708;2023-02-18T07:27:19;9.20;99.90
31783;DHT22;18351;47.560;9.708;2023-02-18T07:29:45;9.20;99.90
31783;DHT22;18351;47.560;9.708;2023-02-18T07:32:12;9.20;99.90
31783;DHT22;18351;47.560;9.708;2023-02-18T07:34:38;9.20;99.90
31783;DHT22;18351;47.560;9.708;2023-02-18T07:37:04;9.20;99.90
31783;DHT22;18351;47.560;9.708;2023-02-18T07:39:41;9.20;99.90
31783;DHT22;18351;47.560;9.708;2023-02-18T07:42:07;9.20;99.90
31783;DHT22;18351;47.560;9.708;2023-02-18T07:44:34;9.20;99.90
31783;DHT22;18351;47.560;9.708;2023-02-18T07:46:59;9.20;99.90
31783;DHT22;18351;47.560;9.708;2023-02-18T07:49:26;9.20;99.90
31783;DHT22;18351;47.560;9.708;2023-02-18T07:51:52;9.20;99.90
31783;DHT22;18351;47.560;9.708;2023-02-18T07:54:17;9.30;99.90
31783;DHT22;18351;47.560;9.708;2023-02-18T07:56:44;9.40;99.90
31783;DHT22;18351;47.560;9.708;2023-02-18T07:59:10;9.60;99.90
31783;DHT22;18351;47.560;9.708;2023-02-18T08:01:36;9.80;99.90
31783;DHT22;18351;47.560;9.708;2023-02-18T08:04:01;9.90;99.90
31783;DHT22;18351;47.560;9.708;2023-02-18T08:06:30;10.00;99.90
31783;DHT22;18351;47.560;9.708;2023-02-18T08:08:57;10.10;99.90
31783;DHT22;18351;47.560;9.708;2023-02-18T08:11:23;10.10;99.90
31783;DHT22;18351;47.560;9.708;2023-02-18T08:13:48;10.20;99.90
31783;DHT22;18351;47.560;9.708;2023-02-18T08:16:15;10.20;99.90
31783;DHT22;18351;47.560;9.708;2023-02-18T08:18:42;10.30;99.90
31783;DHT22;18351;47.560;9.708;2023-02-18T08:21:07;10.30;99.90
31783;DHT22;18351;47.560;9.708;2023-02-18T08:23:33;10.40;99.90
31783;DHT22;18351;47.560;9.708;2023-02-18T08:25:59;10.50;99.90
31783;DHT22;18351;47.560;9.708;2023-02-18T08:28:24;10.70;99.90
31783;DHT22;18351;47.560;9.708;2023-02-18T08:30:52;10.90;99.90
31783;DHT22;18351;47.560;9.708;2023-02-18T08:33:18;10.90;99.90
31783;DHT22;18351;47.560;9.708;2023-02-18T08:35:46;11.00;99.90
31783;DHT22;18351;47.560;9.708;2023-02-18T08:38:12;11.10;99.90
31783;DHT22;18351;47.560;9.708;2023-02-18T08:40:37;11.20;99.90
31783;DHT22;18351;47.560;9.708;2023-02-18T08:43:04;11.30;99.90
31783;DHT22;18351;47.560;9.708;2023-02-18T08:45:30;11.50;99.90
31783;DHT22;18351;47.560;9.708;2023-02-18T08:47:55;11.50;99.90
31783;DHT22;18351;47.560;9.708;2023-02-18T08:50:21;11.60;99.90
31783;DHT22;18351;47.560;9.708;2023-02-18T08:52:53;11.70;99.90
31783;DHT22;18351;47.560;9.708;2023-02-18T08:55:19;11.80;99.90
31783;DHT22;18351;47.560;9.708;2023-02-18T08:57:46;12.00;99.90
31783;DHT22;18351;47.560;9.708;2023-02-18T09:00:16;12.10;99.90
31783;DHT22;18351;47.560;9.708;2023-02-18T09:02:42;12.30;99.80
31783;DHT22;18351;47.560;9.708;2023-02-18T09:05:08;12.50;98.90
31783;DHT22;18351;47.560;9.708;2023-02-18T09:07:35;12.60;98.50
31783;DHT22;18351;47.560;9.708;2023-02-18T09:10:00;12.80;97.70
31783;DHT22;18351;47.560;9.708;2023-02-18T09:12:27;13.00;96.10
31783;DHT22;18351;47.560;9.708;2023-02-18T09:14:52;13.20;96.80
31783;DHT22;18351;47.560;9.708;2023-02-18T09:17:18;13.40;96.00
31783;DHT22;18351;47.560;9.708;2023-02-18T09:19:44;13.50;95.10
31783;DHT22;18351;47.560;9.708;2023-02-18T09:22:09;13.70;94.30
31783;DHT22;18351;47.560;9.708;2023-02-18T09:24:36;13.80;93.40
31783;DHT22;18351;47.560;9.708;2023-02-18T09:27:03;13.90;92.80
31783;DHT22;18351;47.560;9.708;2023-02-18T09:29:28;13.90;92.40
31783;DHT22;18351;47.560;9.708;2023-02-18T09:31:54;14.10;92.10
31783;DHT22;18351;47.560;9.708;2023-02-18T09:34:19;14.10;91.30
31783;DHT22;18351;47.560;9.708;2023-02-18T09:36:45;14.30;91.40
31783;DHT22;18351;47.560;9.708;2023-02-18T09:39:10;14.40;90.40
31783;DHT22;18351;47.560;9.708;2023-02-18T09:41:44;14.50;89.80
31783;DHT22;18351;47.560;9.708;2023-02-18T09:49:26;14.70;86.80
31783;DHT22;18351;47.560;9.708;2023-02-18T09:52:11;14.70;86.90
31783;DHT22;18351;47.560;9.708;2023-02-18T09:54:37;14.70;87.10
31783;DHT22;18351;47.560;9.708;2023-02-18T09:57:05;14.60;86.60
31783;DHT22;18351;47.560;9.708;2023-02-18T09:59:31;14.50;86.60
31783;DHT22;18351;47.560;9.708;2023-02-18T10:01:57;14.50;86.20
31783;DHT22;18351;47.560;9.708;2023-02-18T10:04:33;14.50;86.80
31783;DHT22;18351;47.560;9.708;2023-02-18T10:07:01;14.60;85.70
31783;DHT22;18351;47.560;9.708;2023-02-18T10:09:31;14.70;84.60
31783;DHT22;18351;47.560;9.708;2023-02-18T10:12:09;14.70;84.20
31783;DHT22;18351;47.560;9.708;2023-02-18T10:14:36;14.60;84.80
31783;DHT22;18351;47.560;9.708;2023-02-18T10:17:02;14.70;84.80
31783;DHT22;18351;47.560;9.708;2023-02-18T10:19:32;14.70;84.80
31783;DHT22;18351;47.560;9.708;2023-02-18T10:22:01;14.80;84.60
31783;DHT22;18351;47.560;9.708;2023-02-18T10:24:31;14.90;84.40
31783;DHT22;18351;47.560;9.708;2023-02-18T10:26:59;15.00;83.80
31783;DHT22;18351;47.560;9.708;2023-02-18T10:29:25;14.90;83.20
31783;DHT22;18351;47.560;9.708;2023-02-18T10:32:18;15.10;84.90
31783;DHT22;18351;47.560;9.708;2023-02-18T10:34:53;15.30;84.20
31783;DHT22;18351;47.560;9.708;2023-02-18T10:43:34;15.30;87.80
31783;DHT22;18351;47.560;9.708;2023-02-18T10:51:23;14.90;90.00
31783;DHT22;18351;47.560;9.708;2023-02-18T10:53:51;14.90;90.20
31783;DHT22;18351;47.560;9.708;2023-02-18T10:56:41;14.90;90.10
31783;DHT22;18351;47.560;9.708;2023-02-18T10:59:25;15.10;90.00
31783;DHT22;18351;47.560;9.708;2023-02-18T11:01:58;15.10;89.90
31783;DHT22;18351;47.560;9.708;2023-02-18T11:04:36;15.10;90.40
31783;DHT22;18351;47.560;9.708;2023-02-18T11:07:22;15.10;91.10
31783;DHT22;18351;47.560;9.708;2023-02-18T11:09:53;15.00;91.30
31783;DHT22;18351;47.560;9.708;2023-02-18T11:14:49;15.00;92.00
31783;DHT22;18351;47.560;9.708;2023-02-18T11:17:20;15.30;91.60
31783;DHT22;18351;47.560;9.708;2023-02-18T11:19:54;15.60;91.20
31783;DHT22;18351;47.560;9.708;2023-02-18T11:22:32;15.90;90.30
31783;DHT22;18351;47.560;9.708;2023-02-18T11:25:02;15.90;89.40
31783;DHT22;18351;47.560;9.708;2023-02-18T11:27:40;15.90;90.00
31783;DHT22;18351;47.560;9.708;2023-02-18T11:30:18;15.80;89.60
31783;DHT22;18351;47.560;9.708;2023-02-18T11:32:46;16.00;89.00
31783;DHT22;18351;47.560;9.708;2023-02-18T11:35:22;16.00;90.10
31783;DHT22;18351;47.560;9.708;2023-02-18T11:37:48;16.20;87.70
31783;DHT22;18351;47.560;9.708;2023-02-18T11:40:23;16.40;88.50
31783;DHT22;18351;47.560;9.708;2023-02-18T11:42:49;16.50;87.20
31783;DHT22;18351;47.560;9.708;2023-02-18T11:45:29;16.40;87.20
31783;DHT22;18351;47.560;9.708;2023-02-18T11:48:00;16.30;88.60
31783;DHT22;18351;47.560;9.708;2023-02-18T11:50:30;16.30;88.20
31783;DHT22;18351;47.560;9.708;2023-02-18T11:52:56;16.30;88.80
31783;DHT22;18351;47.560;9.708;2023-02-18T11:55:27;16.30;88.60
31783;DHT22;18351;47.560;9.708;2023-02-18T12:00:30;16.10;88.70
31783;DHT22;18351;47.560;9.708;2023-02-18T12:03:02;15.80;89.60
31783;DHT22;18351;47.560;9.708;2023-02-18T12:05:30;15.80;90.10
31783;DHT22;18351;47.560;9.708;2023-02-18T12:08:13;15.90;90.10
31783;DHT22;18351;47.560;9.708;2023-02-18T12:10:47;15.60;90.30
31783;DHT22;18351;47.560;9.708;2023-02-18T12:13:26;15.60;90.40
31783;DHT22;18351;47.560;9.708;2023-02-18T12:16:20;15.40;90.90
31783;DHT22;18351;47.560;9.708;2023-02-18T12:27:20;15.10;92.10
31783;DHT22;18351;47.560;9.708;2023-02-18T12:30:26;15.20;92.00
31783;DHT22;18351;47.560;9.708;2023-02-18T12:38:38;15.50;91.80
31783;DHT22;18351;47.560;9.708;2023-02-18T12:41:37;15.60;91.90
31783;DHT22;18351;47.560;9.708;2023-02-18T12:44:37;15.60;91.40
31783;DHT22;18351;47.560;9.708;2023-02-18T12:53:18;15.80;90.50
31783;DHT22;18351;47.560;9.708;2023-02-18T12:58:43;15.70;91.50
31783;DHT22;18351;47.560;9.708;2023-02-18T13:01:38;15.80;91.40
31783;DHT22;18351;47.560;9.708;2023-02-18T13:04:24;15.80;90.90
31783;DHT22;18351;47.560;9.708;2023-02-18T13:07:11;15.90;91.20
31783;DHT22;18351;47.560;9.708;2023-02-18T13:12:42;15.70;91.40
31783;DHT22;18351;47.560;9.708;2023-02-18T13:15:17;15.70;92.00
31783;DHT22;18351;47.560;9.708;2023-02-18T13:17:44;15.80;91.70
31783;DHT22;18351;47.560;9.708;2023-02-18T13:20:20;16.00;91.80
31783;DHT22;18351;47.560;9.708;2023-02-18T13:22:48;16.10;91.00
31783;DHT22;18351;47.560;9.708;2023-02-18T13:25:15;16.10;90.90
31783;DHT22;18351;47.560;9.708;2023-02-18T13:30:48;16.10;91.30
31783;DHT22;18351;47.560;9.708;2023-02-18T13:33:32;16.10;91.30
31783;DHT22;18351;47.560;9.708;2023-02-18T13:36:24;16.00;90.80
31783;DHT22;18351;47.560;9.708;2023-02-18T13:39:06;15.90;91.30
31783;DHT22;18351;47.560;9.708;2023-02-18T13:41:38;15.90;91.30
31783;DHT22;18351;47.560;9.708;2023-02-18T13:44:15;15.90;91.80
31783;DHT22;18351;47.560;9.708;2023-02-18T13:46:55;15.90;91.60
31783;DHT22;18351;47.560;9.708;2023-02-18T13:49:23;16.00;91.70
31783;DHT22;18351;47.560;9.708;2023-02-18T13:51:52;16.00;91.40
31783;DHT22;18351;47.560;9.708;2023-02-18T13:57:01;16.10;90.70
31783;DHT22;18351;47.560;9.708;2023-02-18T13:59:43;16.00;91.20
31783;DHT22;18351;47.560;9.708;2023-02-18T14:09:56;16.30;91.40
31783;DHT22;18351;47.560;9.708;2023-02-18T14:12:41;16.40;90.70
31783;DHT22;18351;47.560;9.708;2023-02-18T14:20:42;16.50;90.30
31783;DHT22;18351;47.560;9.708;2023-02-18T14:26:00;16.30;90.40
31783;DHT22;18351;47.560;9.708;2023-02-18T14:39:06;15.90;91.90
31783;DHT22;18351;47.560;9.708;2023-02-18T14:42:03;15.90;91.50
31783;DHT22;18351;47.560;9.708;2023-02-18T14:44:35;15.90;91.70
31783;DHT22;18351;47.560;9.708;2023-02-18T14:49:49;15.70;91.80
31783;DHT22;18351;47.560;9.708;2023-02-18T14:54:52;15.60;92.10
31783;DHT22;18351;47.560;9.708;2023-02-18T14:57:19;15.50;92.40
31783;DHT22;18351;47.560;9.708;2023-02-18T14:59:56;15.50;92.70
31783;DHT22;18351;47.560;9.708;2023-02-18T15:02:25;15.60;92.50
31783;DHT22;18351;47.560;9.708;2023-02-18T15:05:15;15.60;92.10
31783;DHT22;18351;47.560;9.708;2023-02-18T15:07:41;15.60;92.50
31783;DHT22;18351;47.560;9.708;2023-02-18T15:10:13;15.50;92.70
31783;DHT22;18351;47.560;9.708;2023-02-18T15:12:39;15.40;93.00
31783;DHT22;18351;47.560;9.708;2023-02-18T15:15:05;15.40;92.70
31783;DHT22;18351;47.560;9.708;2023-02-18T15:17:31;15.40;92.60
31783;DHT22;18351;47.560;9.708;2023-02-18T15:19:58;15.30;92.50
31783;DHT22;18351;47.560;9.708;2023-02-18T15:22:31;15.20;93.00
31783;DHT22;18351;47.560;9.708;2023-02-18T15:24:58;15.20;92.80
31783;DHT22;18351;47.560;9.708;2023-02-18T15:27:27;15.10;92.90
31783;DHT22;18351;47.560;9.708;2023-02-18T15:30:02;15.10;93.10
31783;DHT22;18351;47.560;9.708;2023-02-18T15:32:31;15.00;93.00
31783;DHT22;18351;47.560;9.708;2023-02-18T15:34:59;15.00;93.20
31783;DHT22;18351;47.560;9.708;2023-02-18T15:37:29;14.90;93.00
31783;DHT22;18351;47.560;9.708;2023-02-18T15:39:55;14.90;93.50
31783;DHT22;18351;47.560;9.708;2023-02-18T15:44:56;14.70;93.90
31783;DHT22;18351;47.560;9.708;2023-02-18T15:47:23;14.80;94.10
31783;DHT22;18351;47.560;9.708;2023-02-18T15:49:52;14.70;94.00
31783;DHT22;18351;47.560;9.708;2023-02-18T15:52:29;14.60;94.30
31783;DHT22;18351;47.560;9.708;2023-02-18T15:55:00;14.60;94.30
31783;DHT22;18351;47.560;9.708;2023-02-18T15:57:28;14.50;94.70
31783;DHT22;18351;47.560;9.708;2023-02-18T16:00:01;14.40;94.80
31783;DHT22;18351;47.560;9.708;2023-02-18T16:02:31;14.30;95.50
31783;DHT22;18351;47.560;9.708;2023-02-18T16:04:59;14.10;95.70
31783;DHT22;18351;47.560;9.708;2023-02-18T16:12:36;13.90;96.00
31783;DHT22;18351;47.560;9.708;2023-02-18T16:15:03;13.90;96.60
31783;DHT22;18351;47.560;9.708;2023-02-18T16:17:29;13.80;96.50
31783;DHT22;18351;47.560;9.708;2023-02-18T16:20:23;13.70;96.90
31783;DHT22;18351;47.560;9.708;2023-02-18T16:22:51;13.70;97.20
31783;DHT22;18351;47.560;9.708;2023-02-18T16:25:22;13.60;97.60
31783;DHT22;18351;47.560;9.708;2023-02-18T16:30:25;13.40;97.90
31783;DHT22;18351;47.560;9.708;2023-02-18T16:32:51;13.40;98.00
31783;DHT22;18351;47.560;9.708;2023-02-18T16:35:18;13.30;98.30
31783;DHT22;18351;47.560;9.708;2023-02-18T16:37:43;13.20;98.70
31783;DHT22;18351;47.560;9.708;2023-02-18T16:43:02;13.10;99.50
31783;DHT22;18351;47.560;9.708;2023-02-18T16:45:39;12.90;99.90
31783;DHT22;18351;47.560;9.708;2023-02-18T16:48:05;12.90;99.90
31783;DHT22;18351;47.560;9.708;2023-02-18T16:50:32;12.80;99.90
31783;DHT22;18351;47.560;9.708;2023-02-18T16:52:59;12.70;99.90
31783;DHT22;18351;47.560;9.708;2023-02-18T16:55:29;12.60;99.90
31783;DHT22;18351;47.560;9.708;2023-02-18T16:57:55;12.60;99.90
31783;DHT22;18351;47.560;9.708;2023-02-18T17:00:21;12.60;99.90
31783;DHT22;18351;47.560;9.708;2023-02-18T17:02:53;12.50;99.90
31783;DHT22;18351;47.560;9.708;2023-02-18T17:05:25;12.60;99.90
31783;DHT22;18351;47.560;9.708;2023-02-18T17:07:51;12.60;99.90
31783;DHT22;18351;47.560;9.708;2023-02-18T17:10:17;12.60;99.90
31783;DHT22;18351;47.560;9.708;2023-02-18T17:12:42;12.60;99.90
31783;DHT22;18351;47.560;9.708;2023-02-18T17:15:23;12.40;99.90
31783;DHT22;18351;47.560;9.708;2023-02-18T17:17:50;12.40;99.90
31783;DHT22;18351;47.560;9.708;2023-02-18T17:20:15;12.30;99.90
31783;DHT22;18351;47.560;9.708;2023-02-18T17:22:41;12.30;99.90
31783;DHT22;18351;47.560;9.708;2023-02-18T17:25:20;12.20;99.90
31783;DHT22;18351;47.560;9.708;2023-02-18T17:27:47;12.20;99.90
31783;DHT22;18351;47.560;9.708;2023-02-18T17:30:13;12.20;99.90
31783;DHT22;18351;47.560;9.708;2023-02-18T17:32:39;12.00;99.90
31783;DHT22;18351;47.560;9.708;2023-02-18T17:35:05;11.90;99.90
31783;DHT22;18351;47.560;9.708;2023-02-18T17:37:31;11.90;99.90
31783;DHT22;18351;47.560;9.708;2023-02-18T17:39:56;11.80;99.90
31783;DHT22;18351;47.560;9.708;2023-02-18T17:42:22;11.60;99.90
31783;DHT22;18351;47.560;9.708;2023-02-18T17:44:47;11.50;99.90
31783;DHT22;18351;47.560;9.708;2023-02-18T17:47:13;11.50;99.90
31783;DHT22;18351;47.560;9.708;2023-02-18T17:49:39;11.30;99.90
31783;DHT22;18351;47.560;9.708;2023-02-18T17:52:04;11.30;99.90
31783;DHT22;18351;47.560;9.708;2023-02-18T17:54:30;11.20;99.90
31783;DHT22;18351;47.560;9.708;2023-02-18T17:56:55;11.10;99.90
31783;DHT22;18351;47.560;9.708;2023-02-18T17:59:21;11.10;99.90
31783;DHT22;18351;47.560;9.708;2023-02-18T18:01:47;11.00;99.90
31783;DHT22;18351;47.560;9.708;2023-02-18T18:04:14;11.00;99.90
31783;DHT22;18351;47.560;9.708;2023-02-18T18:06:40;11.00;99.90
31783;DHT22;18351;47.560;9.708;2023-02-18T18:09:06;10.90;99.90
31783;DHT22;18351;47.560;9.708;2023-02-18T18:11:31;10.90;99.90
31783;DHT22;18351;47.560;9.708;2023-02-18T18:13:59;10.90;99.90